createdAt,value
2022-10-09T00:01:12.201Z,79.40
2022-10-09T00:04:12.497Z,79.80
2022-10-09T00:07:10.911Z,79.80
2022-10-09T00:10:08.927Z,79.60
2022-10-09T00:13:07.361Z,79.60
2022-10-09T00:16:07.353Z,80.00
2022-10-09T00:19:06.322Z,80.10
2022-10-09T00:22:04.708Z,80.50
2022-10-09T00:25:03.781Z,79.70
2022-10-09T00:28:02.700Z,80.30
2022-10-09T00:31:05.946Z,80.90
2022-10-09T00:34:04.143Z,80.70
2022-10-09T00:37:02.721Z,81.00
2022-10-09T00:40:01.188Z,81.30
2022-10-09T00:43:00.210Z,81.40
2022-10-09T00:45:58.490Z,81.40
2022-10-09T00:49:10.710Z,81.50
2022-10-09T00:52:09.040Z,82.00
2022-10-09T00:55:09.632Z,82.30
2022-10-09T00:58:07.986Z,82.50
2022-10-09T01:01:06.562Z,82.70
2022-10-09T01:04:04.813Z,83.10
2022-10-09T01:07:13.402Z,83.10
2022-10-09T01:10:38.161Z,83.20
2022-10-09T01:13:47.741Z,83.70
2022-10-09T01:17:08.470Z,84.10
2022-10-09T01:20:27.069Z,84.40
2022-10-09T01:23:53.514Z,84.20
2022-10-09T01:26:58.582Z,84.40
2022-10-09T01:30:07.800Z,85.00
2022-10-09T01:33:07.443Z,85.00
2022-10-09T01:36:07.722Z,84.90
2022-10-09T01:39:09.093Z,84.90
2022-10-09T01:42:07.825Z,84.30
2022-10-09T01:45:06.771Z,84.60
2022-10-09T01:48:05.532Z,84.90
2022-10-09T01:51:05.419Z,85.20
2022-10-09T01:54:07.535Z,85.10
2022-10-09T01:57:09.091Z,84.80
2022-10-09T02:00:11.295Z,84.20
2022-10-09T02:03:14.012Z,82.60
2022-10-09T02:06:14.762Z,83.10
2022-10-09T02:09:16.684Z,82.50
2022-10-09T02:12:17.423Z,82.40
2022-10-09T02:15:16.612Z,82.40
2022-10-09T02:18:18.798Z,82.50
2022-10-09T02:21:23.804Z,82.40
2022-10-09T02:24:23.866Z,82.30
2022-10-09T02:27:23.566Z,82.60
2022-10-09T02:30:22.334Z,82.60
2022-10-09T02:33:30.849Z,82.40
2022-10-09T02:36:30.264Z,82.60
2022-10-09T02:39:28.776Z,82.40
2022-10-09T02:42:26.928Z,81.70
2022-10-09T02:45:25.826Z,81.10
2022-10-09T02:48:24.531Z,80.80
2022-10-09T02:51:23.294Z,80.50
2022-10-09T02:54:21.686Z,80.00
2022-10-09T02:57:20.095Z,79.80
2022-10-09T03:00:18.035Z,79.00
2022-10-09T03:03:16.708Z,78.50
2022-10-09T03:06:18.747Z,78.20
2022-10-09T03:09:17.264Z,78.10
2022-10-09T03:12:21.539Z,77.40
2022-10-09T03:15:19.952Z,77.10
2022-10-09T03:18:17.929Z,76.20
2022-10-09T03:21:19.148Z,75.00
2022-10-09T03:24:17.330Z,73.70
2022-10-09T03:27:15.866Z,72.30
2022-10-09T03:30:14.504Z,70.40
2022-10-09T03:33:12.916Z,69.70
2022-10-09T03:36:11.250Z,68.50
2022-10-09T03:39:09.916Z,67.90
2022-10-09T03:42:08.011Z,67.60
2022-10-09T03:45:06.860Z,68.00
2022-10-09T03:48:05.169Z,67.80
2022-10-09T03:51:03.943Z,67.10
2022-10-09T03:54:02.638Z,67.10
2022-10-09T03:57:01.034Z,66.70
2022-10-09T03:59:59.366Z,65.70
2022-10-09T04:02:57.895Z,65.40
2022-10-09T04:05:56.058Z,66.10
2022-10-09T04:08:54.539Z,65.70
2022-10-09T04:11:52.936Z,65.80
2022-10-09T04:14:51.377Z,65.50
2022-10-09T04:17:49.489Z,65.20
2022-10-09T04:20:51.932Z,64.70
2022-10-09T04:23:51.144Z,64.60
2022-10-09T04:26:49.584Z,64.50
2022-10-09T04:29:48.023Z,64.40
2022-10-09T04:32:48.724Z,64.50
2022-10-09T04:35:50.501Z,64.60
2022-10-09T04:38:48.938Z,64.90
2022-10-09T04:41:47.382Z,64.30
2022-10-09T04:44:45.852Z,65.00
2022-10-09T04:47:44.076Z,64.60
2022-10-09T04:50:42.519Z,64.80
2022-10-09T04:53:41.599Z,64.40
2022-10-09T04:56:40.319Z,64.70
2022-10-09T04:59:38.440Z,64.50
2022-10-09T05:02:36.944Z,64.20
2022-10-09T05:05:35.233Z,63.60
2022-10-09T05:08:34.191Z,63.60
2022-10-09T05:11:32.297Z,63.50
2022-10-09T05:14:30.737Z,62.20
2022-10-09T05:17:28.924Z,61.90
2022-10-09T05:20:27.591Z,61.70
2022-10-09T05:23:26.043Z,61.30
2022-10-09T05:26:25.860Z,61.80
2022-10-09T05:29:23.994Z,61.10
2022-10-09T05:32:22.343Z,60.50
2022-10-09T05:35:20.479Z,60.40
2022-10-09T05:38:19.744Z,59.40
2022-10-09T05:41:20.137Z,59.20
2022-10-09T05:44:18.778Z,58.20
2022-10-09T05:47:20.185Z,57.60
2022-10-09T05:50:18.649Z,58.10
2022-10-09T05:53:16.754Z,57.70
2022-10-09T05:56:22.431Z,58.30
2022-10-09T05:59:20.714Z,57.90
2022-10-09T06:02:19.401Z,58.00
2022-10-09T06:05:17.614Z,57.20
2022-10-09T06:08:16.139Z,56.80
2022-10-09T06:11:17.668Z,57.10
2022-10-09T06:14:17.177Z,56.30
2022-10-09T06:17:15.352Z,56.20
2022-10-09T06:20:13.791Z,56.40
2022-10-09T06:23:11.912Z,56.20
2022-10-09T06:26:13.260Z,55.90
2022-10-09T06:29:11.371Z,55.30
2022-10-09T06:32:10.102Z,55.60
2022-10-09T06:35:08.888Z,55.20
2022-10-09T06:38:07.587Z,54.80
2022-10-09T06:41:09.199Z,54.50
2022-10-09T06:44:16.385Z,54.70
2022-10-09T06:47:15.059Z,54.00
2022-10-09T06:50:13.465Z,53.80
2022-10-09T06:53:11.590Z,53.50
2022-10-09T06:56:11.050Z,52.80
2022-10-09T06:59:10.734Z,53.80
2022-10-09T07:02:09.903Z,52.80
2022-10-09T07:05:08.462Z,51.90
2022-10-09T07:08:07.023Z,52.00
2022-10-09T07:11:15.506Z,51.60
2022-10-09T07:14:16.224Z,51.90
2022-10-09T07:17:14.358Z,51.20
2022-10-09T07:20:12.971Z,51.40
2022-10-09T07:23:11.039Z,51.20
2022-10-09T07:26:13.173Z,51.50
2022-10-09T07:29:13.778Z,51.50
2022-10-09T07:32:12.408Z,52.00
2022-10-09T07:35:10.649Z,51.50
2022-10-09T07:38:09.096Z,51.30
2022-10-09T07:41:10.434Z,51.80
2022-10-09T07:44:08.970Z,51.30
2022-10-09T07:47:07.497Z,51.10
2022-10-09T07:50:06.539Z,51.20
2022-10-09T07:53:05.047Z,51.30
2022-10-09T07:56:04.841Z,51.50
2022-10-09T07:59:06.730Z,51.60
2022-10-09T08:02:05.352Z,51.10
2022-10-09T08:05:03.842Z,51.30
2022-10-09T08:08:02.423Z,51.20
2022-10-09T08:11:01.199Z,52.00
2022-10-09T08:13:59.911Z,51.50
2022-10-09T08:16:58.060Z,51.50
2022-10-09T08:19:58.414Z,51.10
2022-10-09T08:22:56.530Z,51.20
2022-10-09T08:25:55.330Z,51.10
2022-10-09T08:28:55.531Z,51.40
2022-10-09T08:31:54.786Z,51.70
2022-10-09T08:34:53.511Z,51.80
2022-10-09T08:37:52.109Z,51.50
2022-10-09T08:40:58.449Z,51.80
2022-10-09T08:44:03.785Z,52.10
2022-10-09T08:47:09.811Z,52.10
2022-10-09T08:50:19.262Z,51.90
2022-10-09T08:53:34.815Z,51.70
2022-10-09T08:56:34.646Z,51.10
2022-10-09T08:59:33.162Z,50.90
2022-10-09T09:02:54.513Z,51.20
2022-10-09T09:06:14.825Z,50.90
2022-10-09T09:09:53.234Z,50.80
2022-10-09T09:12:57.728Z,50.40
2022-10-09T09:16:12.315Z,51.30
2022-10-09T09:19:43.559Z,50.20
2022-10-09T09:22:48.083Z,50.00
2022-10-09T09:25:46.727Z,50.60
2022-10-09T09:28:46.269Z,50.60
2022-10-09T09:31:46.724Z,50.30
2022-10-09T09:34:45.750Z,50.50
2022-10-09T09:37:44.073Z,50.90
2022-10-09T09:40:47.195Z,50.80
2022-10-09T09:43:45.812Z,50.50
2022-10-09T09:46:46.953Z,51.10
2022-10-09T09:50:01.923Z,50.50
2022-10-09T09:53:06.444Z,50.10
2022-10-09T09:56:05.286Z,50.30
2022-10-09T09:59:04.167Z,50.30
2022-10-09T10:02:23.023Z,50.30
2022-10-09T10:05:26.571Z,50.80
2022-10-09T10:08:29.253Z,51.20
2022-10-09T10:11:28.551Z,51.20
2022-10-09T10:14:28.406Z,51.30
2022-10-09T10:17:30.800Z,51.30
2022-10-09T10:20:30.846Z,51.40
2022-10-09T10:23:52.122Z,51.00
2022-10-09T10:27:00.704Z,51.30
2022-10-09T10:30:02.971Z,51.30
2022-10-09T10:33:14.896Z,51.90
2022-10-09T10:36:13.400Z,52.10
2022-10-09T10:39:25.597Z,52.40
2022-10-09T10:42:42.467Z,52.50
2022-10-09T10:46:03.584Z,52.30
2022-10-09T10:49:02.314Z,52.70
2022-10-09T10:52:29.761Z,52.80
2022-10-09T10:55:40.821Z,52.60
2022-10-09T10:58:54.655Z,52.80
2022-10-09T11:02:14.717Z,53.00
2022-10-09T11:05:31.669Z,53.00
2022-10-09T11:08:51.662Z,53.20
2022-10-09T11:12:00.311Z,53.30
2022-10-09T11:15:17.358Z,53.10
2022-10-09T11:18:36.827Z,53.10
2022-10-09T11:21:55.110Z,53.80
2022-10-09T11:25:08.690Z,53.30
2022-10-09T11:28:14.024Z,53.50
2022-10-09T11:31:17.199Z,53.30
2022-10-09T11:34:22.155Z,53.60
2022-10-09T11:37:25.983Z,53.70
2022-10-09T11:40:31.169Z,54.40
